createdAt,value
2023-02-12T07:45:38.639Z,3.43
2023-02-12T07:48:40.531Z,3.56
2023-02-12T07:51:42.056Z,3.56
2023-02-12T07:54:43.704Z,3.54
2023-02-12T07:57:47.619Z,3.59
2023-02-12T08:00:49.244Z,3.82
2023-02-12T08:03:51.007Z,3.81
2023-02-12T08:06:54.244Z,3.53
2023-02-12T08:09:55.823Z,3.51
2023-02-12T08:12:57.339Z,3.60
2023-02-12T08:16:07.072Z,3.83
2023-02-12T08:19:17.881Z,4.08
2023-02-12T08:22:21.157Z,4.24
2023-02-12T08:25:22.697Z,4.88
2023-02-12T08:28:24.286Z,5.40
2023-02-12T08:31:27.178Z,5.76
2023-02-12T08:34:30.542Z,6.66
2023-02-12T08:37:32.424Z,7.06
2023-02-12T08:40:33.970Z,8.44
2023-02-12T08:43:35.725Z,8.86
2023-02-12T08:46:38.969Z,8.67
2023-02-12T08:49:40.755Z,9.68
2023-02-12T08:52:43.745Z,10.06
2023-02-12T08:55:49.789Z,11.39
2023-02-12T08:58:51.369Z,11.88
2023-02-12T09:01:53.019Z,12.17
2023-02-12T09:04:54.570Z,13.17
2023-02-12T09:07:56.078Z,10.60
2023-02-12T09:10:57.636Z,10.74
2023-02-12T09:14:02.332Z,11.91
2023-02-12T09:17:03.894Z,11.07
2023-02-12T09:20:05.988Z,12.31
2023-02-12T09:23:07.834Z,12.79
2023-02-12T09:26:11.245Z,14.12
2023-02-12T09:29:12.804Z,12.67
2023-02-12T09:32:14.398Z,13.67
2023-02-12T09:35:16.065Z,13.99
2023-02-12T09:38:17.600Z,14.51
2023-02-12T09:41:38.051Z,13.29
2023-02-12T09:45:15.098Z,14.23
2023-02-12T09:48:41.350Z,14.11
2023-02-12T09:51:44.048Z,14.26
2023-02-12T09:54:46.004Z,14.68
2023-02-12T09:57:47.445Z,15.02
2023-02-12T10:00:49.029Z,14.40
2023-02-12T10:03:51.898Z,15.51
2023-02-12T10:07:12.209Z,15.97
2023-02-12T10:10:44.766Z,15.28
2023-02-12T10:13:55.217Z,13.69
2023-02-12T10:17:14.885Z,13.12
2023-02-12T10:20:47.500Z,13.73
2023-02-12T10:24:07.273Z,14.06
2023-02-12T10:27:17.091Z,13.64
2023-02-12T10:30:20.481Z,12.85
2023-02-12T10:33:30.280Z,12.50
2023-02-12T10:36:37.587Z,12.76
2023-02-12T10:39:42.889Z,13.09
2023-02-12T10:42:45.337Z,12.84
2023-02-12T10:45:46.939Z,12.95
2023-02-12T10:48:49.966Z,13.04
2023-02-12T10:52:09.757Z,13.59
2023-02-12T10:55:32.390Z,14.02
2023-02-12T10:58:33.973Z,12.94
2023-02-12T11:01:37.714Z,13.51
2023-02-12T11:04:40.313Z,13.71
2023-02-12T11:07:49.480Z,14.21
2023-02-12T11:10:50.998Z,14.66
2023-02-12T11:13:58.475Z,15.66
2023-02-12T11:17:00.306Z,15.77
2023-02-12T11:20:20.877Z,16.36
2023-02-12T11:23:30.604Z,15.35
2023-02-12T11:26:32.124Z,15.57
2023-02-12T11:29:33.749Z,15.40
2023-02-12T11:32:35.329Z,14.82
2023-02-12T11:35:36.832Z,14.22
2023-02-12T11:38:39.846Z,13.68
2023-02-12T11:41:41.383Z,12.69
2023-02-12T11:44:51.491Z,12.13
2023-02-12T11:47:53.029Z,11.38
2023-02-12T11:50:56.068Z,11.36
2023-02-12T11:54:01.188Z,11.39
2023-02-12T11:57:02.707Z,10.59
2023-02-12T12:00:06.920Z,10.77
2023-02-12T12:03:35.302Z,11.40
2023-02-12T12:06:41.772Z,11.14
2023-02-12T12:09:49.340Z,10.59
2023-02-12T12:12:58.861Z,10.49
2023-02-12T12:16:26.202Z,10.45
2023-02-12T12:19:52.926Z,10.21
2023-02-12T12:23:01.611Z,10.60
2023-02-12T12:26:31.651Z,10.32
2023-02-12T12:29:45.126Z,10.46
2023-02-12T12:32:47.149Z,10.42
2023-02-12T12:36:03.312Z,10.53
2023-02-12T12:39:26.073Z,10.45
2023-02-12T12:43:00.042Z,10.50
2023-02-12T12:46:15.394Z,10.54
2023-02-12T12:49:30.575Z,10.39
2023-02-12T12:52:39.428Z,10.28
2023-02-12T12:56:22.798Z,10.48
2023-02-12T12:59:35.367Z,10.38
2023-02-12T13:02:55.690Z,10.24
2023-02-12T13:06:18.960Z,10.21
2023-02-12T13:09:23.310Z,10.16
2023-02-12T13:12:43.711Z,10.38
2023-02-12T13:16:09.384Z,10.09
2023-02-12T13:19:43.970Z,10.02
2023-02-12T13:22:48.352Z,10.10
2023-02-12T13:26:42.321Z,10.40
2023-02-12T13:29:52.452Z,9.93
2023-02-12T13:33:07.267Z,9.67
2023-02-12T13:36:10.608Z,9.71
2023-02-12T13:39:34.853Z,9.90
2023-02-12T13:42:57.884Z,9.78
2023-02-12T13:46:22.355Z,9.91
2023-02-12T13:49:35.885Z,10.06
2023-02-12T13:52:54.347Z,10.45
2023-02-12T13:56:02.081Z,10.34
2023-02-12T13:59:03.688Z,10.59
2023-02-12T14:02:33.342Z,10.47
2023-02-12T14:05:35.313Z,10.04
2023-02-12T14:08:38.812Z,9.98
2023-02-12T14:11:48.457Z,10.01
2023-02-12T14:14:50.891Z,10.44
2023-02-12T14:17:52.667Z,10.49
2023-02-12T14:21:10.038Z,10.26
2023-02-12T14:24:36.433Z,12.18
2023-02-12T14:27:45.783Z,12.98
2023-02-12T14:30:47.601Z,13.74
2023-02-12T14:33:50.656Z,13.13
2023-02-12T14:37:18.685Z,12.85
2023-02-12T14:40:36.493Z,12.42
2023-02-12T14:43:56.802Z,11.82
2023-02-12T14:47:06.784Z,11.65
2023-02-12T14:50:20.612Z,11.25
2023-02-12T14:53:24.178Z,10.99
2023-02-12T14:56:25.685Z,10.87
2023-02-12T14:59:27.286Z,10.25
2023-02-12T15:02:30.396Z,10.33
2023-02-12T15:05:34.468Z,10.06
2023-02-12T15:08:39.822Z,10.16
2023-02-12T15:11:50.527Z,10.06
2023-02-12T15:15:06.863Z,10.00
2023-02-12T15:18:29.436Z,9.57
2023-02-12T15:21:34.040Z,8.81
2023-02-12T15:24:35.568Z,8.84
2023-02-12T15:27:37.508Z,8.94
2023-02-12T15:30:39.032Z,8.90
2023-02-12T15:33:41.719Z,8.59
2023-02-12T15:36:44.495Z,8.26
2023-02-12T15:39:46.655Z,8.33
2023-02-12T15:43:04.546Z,7.91
2023-02-12T15:46:07.661Z,7.67
2023-02-12T15:49:19.455Z,7.46
2023-02-12T15:52:24.737Z,7.02
2023-02-12T15:55:28.348Z,6.99
2023-02-12T15:58:32.801Z,6.82
2023-02-12T16:01:35.151Z,6.65
2023-02-12T16:04:37.722Z,6.46
2023-02-12T16:07:39.604Z,6.07
2023-02-12T16:10:52.297Z,5.75
2023-02-12T16:13:58.555Z,5.84
2023-02-12T16:17:00.200Z,5.87
2023-02-12T16:20:19.820Z,5.65
2023-02-12T16:23:23.776Z,5.73
2023-02-12T16:26:25.676Z,5.67
2023-02-12T16:29:27.207Z,5.49
2023-02-12T16:32:32.595Z,5.44
2023-02-12T16:35:34.458Z,5.31
2023-02-12T16:38:43.649Z,5.09
2023-02-12T16:41:53.188Z,4.91
2023-02-12T16:44:55.668Z,4.80
2023-02-12T16:48:07.030Z,4.66
2023-02-12T16:51:23.170Z,4.61
2023-02-12T16:54:29.093Z,4.50
2023-02-12T16:57:30.645Z,4.27
2023-02-12T17:00:32.183Z,4.30
2023-02-12T17:03:34.247Z,4.06
2023-02-12T17:06:35.794Z,3.94
2023-02-12T17:09:37.358Z,3.86
2023-02-12T17:12:51.022Z,3.60
2023-02-12T17:15:57.434Z,3.49
2023-02-12T17:19:00.035Z,3.42
2023-02-12T17:22:02.524Z,3.33
2023-02-12T17:25:04.529Z,3.23
2023-02-12T17:28:06.157Z,3.13
2023-02-12T17:31:11.056Z,3.11
2023-02-12T17:34:12.620Z,2.97
2023-02-12T17:37:14.127Z,2.82
2023-02-12T17:40:16.393Z,2.79
2023-02-12T17:43:17.919Z,2.75
2023-02-12T17:46:21.994Z,2.66
2023-02-12T17:49:23.545Z,2.67
2023-02-12T17:52:25.072Z,2.60
2023-02-12T17:55:26.669Z,2.59
2023-02-12T17:58:28.241Z,2.56
2023-02-12T18:01:29.835Z,2.38
2023-02-12T18:04:33.955Z,2.32
2023-02-12T18:07:35.702Z,2.26
2023-02-12T18:10:41.496Z,2.23
2023-02-12T18:13:43.093Z,2.33
2023-02-12T18:16:44.653Z,2.32
2023-02-12T18:19:48.033Z,2.30
2023-02-12T18:22:50.285Z,2.02
2023-02-12T18:25:51.800Z,1.97
2023-02-12T18:28:54.104Z,1.99
2023-02-12T18:31:55.651Z,1.98
2023-02-12T18:34:57.346Z,2.11
2023-02-12T18:37:59.007Z,2.19
2023-02-12T18:41:00.587Z,2.12
2023-02-12T18:44:02.163Z,1.98
2023-02-12T18:47:03.810Z,1.96
2023-02-12T18:50:06.335Z,1.98
2023-02-12T18:53:07.988Z,1.89
2023-02-12T18:56:10.085Z,1.83
2023-02-12T18:59:13.185Z,1.73
2023-02-12T19:02:14.920Z,1.71
2023-02-12T19:05:17.020Z,1.58
2023-02-12T19:08:18.653Z,1.39
2023-02-12T19:11:20.199Z,1.53
2023-02-12T19:14:22.078Z,1.40
2023-02-12T19:17:23.596Z,1.47
2023-02-12T19:20:25.190Z,1.41
2023-02-12T19:23:26.737Z,1.60
2023-02-12T19:26:28.994Z,1.57
2023-02-12T19:29:30.584Z,1.50
2023-02-12T19:32:32.156Z,1.67
2023-02-12T19:35:36.804Z,1.63
2023-02-12T19:38:38.384Z,1.67
2023-02-12T19:41:42.759Z,1.66
2023-02-12T19:44:44.636Z,1.84
2023-02-12T19:47:46.213Z,1.78
2023-02-12T19:50:47.755Z,1.82
2023-02-12T19:53:49.352Z,1.79
2023-02-12T19:56:52.014Z,1.83
2023-02-12T19:59:53.580Z,1.78
2023-02-12T20:02:55.152Z,1.72
2023-02-12T20:06:10.913Z,1.88
2023-02-12T20:09:12.874Z,1.85
2023-02-12T20:12:14.393Z,1.75
2023-02-12T20:15:15.966Z,1.87
2023-02-12T20:18:17.591Z,1.86
2023-02-12T20:21:23.261Z,1.89
2023-02-12T20:24:26.341Z,1.61
2023-02-12T20:27:27.839Z,1.65
2023-02-12T20:30:29.346Z,1.57
2023-02-12T20:33:30.883Z,1.42
2023-02-12T20:36:33.955Z,1.28
2023-02-12T20:39:35.513Z,1.23
2023-02-12T20:42:37.881Z,1.24
2023-02-12T20:45:39.431Z,1.07
2023-02-12T20:48:41.179Z,0.98
2023-02-12T20:51:43.061Z,0.93
2023-02-12T20:54:46.361Z,0.78
2023-02-12T20:57:49.572Z,0.75
2023-02-12T21:00:51.105Z,0.85
2023-02-12T21:03:53.679Z,0.85
2023-02-12T21:06:55.199Z,0.79
2023-02-12T21:09:56.805Z,0.74
2023-02-12T21:12:58.496Z,0.84
2023-02-12T21:16:06.815Z,0.69
2023-02-12T21:19:08.748Z,0.66
2023-02-12T21:22:10.232Z,0.55
2023-02-12T21:25:11.724Z,0.58
2023-02-12T21:28:13.245Z,0.55
2023-02-12T21:31:16.662Z,0.64
2023-02-12T21:34:20.488Z,0.71
2023-02-12T21:37:22.003Z,0.80
2023-02-12T21:40:23.758Z,0.74
2023-02-12T21:43:25.377Z,0.62
2023-02-12T21:46:27.188Z,0.95
2023-02-12T21:49:28.943Z,1.13
2023-02-12T21:52:30.512Z,1.25
2023-02-12T21:55:32.402Z,1.29
2023-02-12T21:58:34.192Z,0.81
2023-02-12T22:01:37.711Z,0.65
2023-02-12T22:04:39.224Z,0.53
2023-02-12T22:07:40.711Z,0.42
2023-02-12T22:10:42.215Z,0.31
2023-02-12T22:13:43.837Z,0.23
2023-02-12T22:16:45.525Z,0.19
2023-02-12T22:19:47.178Z,0.13
2023-02-12T22:22:48.721Z,0.08
2023-02-12T22:25:50.225Z,0.08
2023-02-12T22:28:57.045Z,0.08
2023-02-12T22:31:58.613Z,0.05
2023-02-12T22:35:00.343Z,0.04
2023-02-12T22:38:02.997Z,-0.09
2023-02-12T22:41:05.349Z,-0.08
2023-02-12T22:44:07.076Z,-0.02
2023-02-12T22:47:09.327Z,-0.05
2023-02-12T22:50:11.077Z,-0.21
2023-02-12T22:53:12.613Z,-0.23
2023-02-12T22:56:14.304Z,-0.21
2023-02-12T22:59:15.803Z,-0.27
2023-02-12T23:02:17.344Z,-0.24
2023-02-12T23:05:18.931Z,-0.18
2023-02-12T23:08:20.526Z,-0.18
2023-02-12T23:11:24.636Z,-0.16
2023-02-12T23:14:26.591Z,-0.16
2023-02-12T23:17:28.166Z,-0.16
2023-02-12T23:20:29.679Z,-0.06
2023-02-12T23:23:31.205Z,-0.23
2023-02-12T23:26:32.795Z,-0.33
2023-02-12T23:29:35.092Z,-0.32
2023-02-12T23:32:36.715Z,-0.54
2023-02-12T23:35:38.318Z,-0.65
2023-02-12T23:38:39.830Z,-0.59
2023-02-12T23:41:41.406Z,-0.61
2023-02-12T23:44:43.016Z,-0.62
2023-02-12T23:47:44.660Z,-0.68
2023-02-12T23:50:48.235Z,-0.73
2023-02-12T23:53:50.995Z,-0.66
2023-02-12T23:56:52.456Z,-0.68
2023-02-12T23:59:54.646Z,-0.61
